Time;durP1;ratioP1;P1;durP2;ratioP2;P2;SDS_P1;SDS_P2;PMS_P1;PMS_P2;Temp;Humidity;BMP_temperature;BMP_pressure;BME280_temperature;BME280_humidity;BME280_pressure;Samples;Min_cycle;Max_cycle;Signal;HPM_P1;HPM_P2
2022/12/22 03:26:29;;;;;;;56.88;19.70;;;8.30;99.90;;;;;;4217011;28;20504;-89
2022/12/22 03:28:30;;;;;;;59.67;18.60;;;8.30;99.90;;;;;;4216224;28;20075;-89
2022/12/22 03:30:32;;;;;;;57.42;17.88;;;8.30;99.90;;;;;;4200274;28;20045;-90
2022/12/22 03:32:34;;;;;;;54.03;18.25;;;8.40;99.90;;;;;;4199404;28;20059;-89
2022/12/22 03:34:36;;;;;;;53.13;18.70;;;8.40;99.90;;;;;;4184040;28;20049;-89
2022/12/22 03:36:37;;;;;;;58.30;18.90;;;8.40;99.90;;;;;;4181426;28;20103;-82
2022/12/22 03:38:37;;;;;;;58.03;17.20;;;8.40;99.90;;;;;;4203313;28;20040;-81
2022/12/22 03:40:39;;;;;;;61.78;18.73;;;8.30;99.90;;;;;;4203446;28;20037;-90
2022/12/22 03:47:20;;;;;;;47.72;17.48;;;8.30;99.90;;;;;;4200579;28;20045;-89
2022/12/22 03:49:27;;;;;;;48.78;17.83;;;8.40;99.90;;;;;;4200088;28;20052;-89
2022/12/22 03:51:28;;;;;;;54.40;19.02;;;8.30;99.90;;;;;;4183072;28;20049;-85
2022/12/22 03:53:29;;;;;;;53.25;17.08;;;8.40;99.90;;;;;;4182207;28;20057;-86
2022/12/22 03:55:30;;;;;;;58.90;18.13;;;8.80;99.90;;;;;;4198534;28;20049;-86
2022/12/22 03:57:30;;;;;;;45.25;17.67;;;8.30;99.90;;;;;;4200402;28;20044;-87
2022/12/22 03:59:31;;;;;;;56.03;19.02;;;8.30;99.90;;;;;;4200473;28;20094;-88
2022/12/22 04:01:51;;;;;;;58.92;19.83;;;8.20;99.90;;;;;;4198794;28;20623;-88
2022/12/22 04:03:51;;;;;;;50.53;17.05;;;8.30;99.90;;;;;;4200281;28;20044;-86
2022/12/22 04:05:54;;;;;;;59.50;19.92;;;8.30;99.90;;;;;;4201551;28;22097;-89
2022/12/22 04:07:56;;;;;;;52.67;17.10;;;8.30;99.90;;;;;;4199289;28;20056;-90
2022/12/22 04:14:36;;;;;;;;;;;8.30;99.90;;;;;;4198770;28;20076;-89
2022/12/22 04:16:37;;;;;;;47.28;15.80;;;8.30;99.90;;;;;;4198876;28;19923;-89
2022/12/22 04:18:38;;;;;;;46.65;17.08;;;8.40;99.90;;;;;;4198373;28;20481;-91
2022/12/22 04:20:42;;;;;;;47.58;16.80;;;8.50;99.90;;;;;;4200425;28;20044;-89
2022/12/22 04:22:49;;;;;;;52.15;17.48;;;8.80;99.90;;;;;;4183044;28;20057;-89
2022/12/22 04:24:50;;;;;;;48.75;17.05;;;8.20;99.90;;;;;;4198778;28;20051;-90
2022/12/22 04:26:53;;;;;;;54.30;17.75;;;8.30;99.90;;;;;;4198925;28;20500;-90
2022/12/22 04:28:54;;;;;;;52.13;16.48;;;8.30;99.90;;;;;;4199225;28;20052;-89
2022/12/22 04:30:56;;;;;;;50.10;16.67;;;8.90;99.90;;;;;;4199355;28;20037;-89
2022/12/22 04:32:57;;;;;;;50.63;15.77;;;8.20;99.90;;;;;;4182688;28;20045;-87
2022/12/22 04:34:57;;;;;;;51.78;16.92;;;8.20;99.90;;;;;;4182411;28;20512;-90
2022/12/22 04:36:58;;;;;;;56.13;17.92;;;8.10;99.90;;;;;;4199109;28;20424;-90
2022/12/22 04:39:09;;;;;;;45.63;15.45;;;8.20;99.90;;;;;;4199534;28;20049;-90
2022/12/22 04:41:10;;;;;;;52.00;15.98;;;8.20;99.90;;;;;;4182746;28;20065;-90
2022/12/22 04:43:11;;;;;;;46.22;16.98;;;8.20;99.90;;;;;;4181895;28;20107;-90
2022/12/22 04:45:12;;;;;;;51.72;15.80;;;8.20;99.90;;;;;;4182511;28;20053;-90
2022/12/22 04:47:13;;;;;;;50.00;16.45;;;8.20;99.90;;;;;;4198772;28;20048;-90
2022/12/22 04:49:14;;;;;;;41.67;15.25;;;8.30;99.90;;;;;;4198301;28;20040;-90
2022/12/22 04:51:14;;;;;;;44.03;16.17;;;8.20;99.90;;;;;;4198064;28;20062;-88
2022/12/22 04:53:15;;;;;;;53.40;16.13;;;8.20;99.90;;;;;;4181394;28;20080;-90
2022/12/22 04:55:16;;;;;;;45.35;14.70;;;8.20;99.90;;;;;;4181905;28;20044;-90
2022/12/22 04:57:17;;;;;;;44.30;14.90;;;8.10;99.90;;;;;;4198259;28;20127;-90
2022/12/22 04:59:17;;;;;;;48.58;15.88;;;8.20;99.90;;;;;;4181728;28;20505;-89
2022/12/22 05:01:20;;;;;;;48.85;15.15;;;8.30;99.90;;;;;;4199143;28;20048;-89
2022/12/22 05:03:23;;;;;;;45.65;14.32;;;8.10;99.90;;;;;;4181518;28;20091;-90
2022/12/22 05:05:24;;;;;;;44.40;13.65;;;8.20;99.90;;;;;;4201021;28;20041;-89
2022/12/22 05:07:25;;;;;;;41.50;14.57;;;8.10;99.90;;;;;;4206989;28;20052;-89
2022/12/22 05:09:26;;;;;;;43.90;14.65;;;8.10;99.90;;;;;;4204832;28;20124;-89
2022/12/22 05:11:28;;;;;;;39.63;13.70;;;8.10;99.90;;;;;;4200857;28;20068;-89
2022/12/22 05:13:30;;;;;;;39.75;14.82;;;8.10;99.90;;;;;;4208707;28;20048;-88
2022/12/22 05:15:33;;;;;;;40.25;15.20;;;8.10;99.90;;;;;;4207831;28;20052;-90
2022/12/22 05:17:33;;;;;;;48.10;13.88;;;8.10;99.90;;;;;;4182237;28;20051;-89
2022/12/22 05:19:34;;;;;;;40.97;14.68;;;8.00;99.90;;;;;;4199835;28;20075;-89
2022/12/22 05:21:35;;;;;;;42.65;15.40;;;8.10;99.90;;;;;;4199153;28;20405;-89
2022/12/22 05:23:37;;;;;;;37.65;13.93;;;8.10;99.90;;;;;;4198176;28;20048;-89
2022/12/22 05:25:38;;;;;;;42.60;14.23;;;8.20;99.90;;;;;;4199221;28;20090;-89
2022/12/22 05:27:40;;;;;;;39.85;13.68;;;8.10;99.90;;;;;;4181544;28;20052;-89
2022/12/22 05:29:40;;;;;;;33.05;13.38;;;8.00;99.90;;;;;;4199169;28;20044;-89
2022/12/22 05:31:41;;;;;;;39.88;13.00;;;8.00;99.90;;;;;;4180652;28;20515;-89
2022/12/22 05:33:43;;;;;;;40.83;13.98;;;8.00;99.90;;;;;;4197899;28;20187;-89
2022/12/22 05:35:44;;;;;;;37.85;13.02;;;8.00;99.90;;;;;;4197884;28;20067;-89
2022/12/22 05:37:44;;;;;;;47.35;13.57;;;7.80;99.90;;;;;;4198804;28;20044;-89
2022/12/22 05:39:45;;;;;;;40.88;14.30;;;8.00;99.90;;;;;;4181538;28;20084;-89
2022/12/22 05:41:46;;;;;;;39.22;12.18;;;8.00;99.90;;;;;;4181701;28;20052;-89
2022/12/22 05:43:48;;;;;;;38.92;12.30;;;8.00;99.90;;;;;;4198017;28;20110;-89
2022/12/22 05:45:50;;;;;;;37.60;12.75;;;8.00;99.90;;;;;;4196688;28;20109;-89
2022/12/22 05:47:52;;;;;;;36.10;11.65;;;7.90;99.90;;;;;;4198154;28;20115;-90
2022/12/22 05:49:54;;;;;;;33.30;11.52;;;7.90;99.90;;;;;;4167308;28;20050;-89
2022/12/22 05:51:55;;;;;;;36.50;11.48;;;8.00;99.90;;;;;;4181723;28;20156;-89
2022/12/22 05:53:57;;;;;;;31.88;11.02;;;7.90;99.90;;;;;;4198207;28;20049;-89
2022/12/22 05:55:57;;;;;;;36.88;13.07;;;8.30;99.90;;;;;;4198269;28;20056;-91
2022/12/22 05:58:00;;;;;;;34.20;11.73;;;7.90;99.90;;;;;;4199461;28;20048;-89
2022/12/22 06:00:03;;;;;;;37.90;11.88;;;7.90;99.90;;;;;;4201041;28;20076;-89
2022/12/22 06:02:05;;;;;;;36.97;11.75;;;7.90;99.90;;;;;;4185792;28;20452;-89
2022/12/22 06:04:05;;;;;;;34.45;12.40;;;7.90;99.90;;;;;;4185880;28;20099;-88
2022/12/22 06:06:07;;;;;;;36.65;12.75;;;7.90;99.90;;;;;;4202875;28;20126;-90
2022/12/22 06:08:10;;;;;;;36.67;12.52;;;7.80;99.90;;;;;;4186425;28;20091;-89
2022/12/22 06:10:12;;;;;;;32.10;11.85;;;7.90;99.90;;;;;;4205384;28;20074;-91
2022/12/22 06:12:13;;;;;;;36.55;11.25;;;7.90;99.90;;;;;;4205525;28;20153;-88
2022/12/22 06:14:14;;;;;;;29.52;10.32;;;7.90;99.90;;;;;;4186969;28;20472;-91
2022/12/22 06:16:14;;;;;;;28.85;10.77;;;7.80;99.90;;;;;;4186936;28;20048;-90
2022/12/22 06:18:15;;;;;;;30.23;10.93;;;7.70;99.90;;;;;;4181679;28;20088;-89
2022/12/22 06:20:16;;;;;;;25.88;10.13;;;7.70;99.90;;;;;;4198652;28;20032;-88
2022/12/22 06:22:17;;;;;;;28.05;11.82;;;7.70;99.90;;;;;;4198410;28;20033;-88
2022/12/22 06:24:18;;;;;;;27.13;10.88;;;7.70;99.90;;;;;;4198696;28;20045;-89
2022/12/22 06:26:18;;;;;;;28.83;10.38;;;7.60;99.90;;;;;;4197106;28;20174;-89
2022/12/22 06:28:19;;;;;;;29.17;9.73;;;7.70;99.90;;;;;;4198498;28;20037;-89
2022/12/22 06:30:20;;;;;;;31.88;10.07;;;7.60;99.90;;;;;;4186558;28;20056;-90
2022/12/22 06:32:20;;;;;;;24.85;8.68;;;7.60;99.90;;;;;;4197064;28;20049;-89
2022/12/22 06:34:21;;;;;;;27.50;9.68;;;7.50;99.90;;;;;;4180880;28;20045;-90
2022/12/22 06:36:23;;;;;;;30.50;9.80;;;7.40;99.90;;;;;;4197556;28;20048;-89
2022/12/22 06:38:26;;;;;;;28.52;10.02;;;7.40;99.90;;;;;;4181395;28;20390;-89
2022/12/22 06:40:26;;;;;;;27.52;9.68;;;7.30;99.90;;;;;;4204881;28;20062;-89
2022/12/22 06:44:49;;;;;;;25.17;8.95;;;7.20;99.90;;;;;;4210103;28;20056;-89
2022/12/22 06:46:50;;;;;;;32.95;10.48;;;7.30;99.90;;;;;;4210855;28;20052;-88
2022/12/22 06:48:51;;;;;;;31.52;10.32;;;7.30;99.90;;;;;;4210717;28;20049;-89
2022/12/22 06:50:59;;;;;;;28.65;10.27;;;7.20;99.90;;;;;;4191748;28;20052;-90
2022/12/22 06:53:03;;;;;;;25.83;10.88;;;6.70;99.90;;;;;;4209204;28;20072;-89
2022/12/22 06:55:04;;;;;;;26.33;10.70;;;7.70;99.90;;;;;;4209064;28;20413;-90
2022/12/22 06:57:05;;;;;;;25.67;9.95;;;7.10;99.90;;;;;;4208159;28;20028;-89
2022/12/22 06:59:06;;;;;;;25.63;9.15;;;7.10;99.90;;;;;;4190464;28;20081;-89
2022/12/22 07:01:07;;;;;;;28.85;10.57;;;7.10;99.90;;;;;;4204753;28;20082;-89
2022/12/22 07:03:09;;;;;;;37.63;11.70;;;7.20;99.90;;;;;;4201720;28;20140;-89
2022/12/22 07:05:09;;;;;;;33.45;11.15;;;7.20;99.90;;;;;;4184661;28;20495;-89
2022/12/22 07:07:11;;;;;;;33.92;10.95;;;7.60;99.90;;;;;;4183154;28;20096;-90
2022/12/22 07:09:13;;;;;;;33.08;11.30;;;7.20;99.90;;;;;;4184841;28;20471;-90
2022/12/22 07:11:14;;;;;;;41.08;11.48;;;7.10;99.90;;;;;;4185746;28;20045;-90
2022/12/22 07:13:22;;;;;;;41.90;12.07;;;7.10;99.90;;;;;;4202048;28;20049;-89
2022/12/22 07:15:24;;;;;;;37.08;12.18;;;7.20;99.90;;;;;;4184173;28;20509;-90
2022/12/22 07:17:25;;;;;;;43.47;14.30;;;7.60;99.90;;;;;;4201717;28;20049;-90
2022/12/22 07:19:27;;;;;;;35.78;11.52;;;7.10;99.90;;;;;;4184729;28;20431;-90
2022/12/22 07:21:30;;;;;;;49.35;13.45;;;7.10;99.90;;;;;;4200530;28;20114;-89
2022/12/22 07:23:33;;;;;;;41.03;12.05;;;7.10;99.90;;;;;;4200158;28;20135;-90
2022/12/22 07:25:33;;;;;;;34.13;11.98;;;7.00;99.90;;;;;;4200047;28;20048;-90
2022/12/22 07:27:35;;;;;;;39.42;12.25;;;7.00;99.90;;;;;;4201608;28;20044;-90
2022/12/22 07:29:39;;;;;;;36.63;10.70;;;6.90;99.90;;;;;;4183709;28;20468;-90
2022/12/22 07:31:40;;;;;;;35.83;10.95;;;6.90;99.90;;;;;;4200968;28;20045;-90
2022/12/22 07:33:40;;;;;;;31.92;11.10;;;6.80;99.90;;;;;;4200821;28;20079;-90
2022/12/22 07:35:42;;;;;;;31.90;9.98;;;7.20;99.90;;;;;;4200152;28;20044;-90
2022/12/22 07:37:43;;;;;;;31.15;10.77;;;6.00;99.90;;;;;;4184931;28;20049;-90
2022/12/22 07:39:44;;;;;;;31.35;10.07;;;6.70;99.90;;;;;;4184020;28;20457;-90
2022/12/22 07:44:09;;;;;;;29.02;9.00;;;6.60;99.90;;;;;;4201374;28;20044;-88
2022/12/22 07:46:10;;;;;;;32.17;11.38;;;7.20;99.90;;;;;;4183379;28;20550;-87
2022/12/22 07:50:31;;;;;;;32.67;10.02;;;6.60;99.90;;;;;;4201786;28;20044;-87
2022/12/22 07:52:32;;;;;;;31.48;10.55;;;6.60;99.90;;;;;;4185058;28;20059;-87
2022/12/22 07:54:34;;;;;;;31.02;9.85;;;6.60;99.90;;;;;;4209330;28;20037;-87
2022/12/22 07:56:35;;;;;;;32.00;9.43;;;6.60;99.90;;;;;;4219635;28;20131;-87
2022/12/22 07:58:37;;;;;;;28.48;8.32;;;6.60;99.90;;;;;;4217081;28;20079;-86
2022/12/22 08:00:38;;;;;;;36.25;9.30;;;6.50;99.90;;;;;;4204069;28;20048;-87
2022/12/22 08:02:39;;;;;;;31.38;9.23;;;7.00;99.90;;;;;;4219135;28;20077;-88
2022/12/22 08:04:42;;;;;;;29.90;8.35;;;6.50;99.90;;;;;;4217088;28;20055;-87
2022/12/22 08:06:45;;;;;;;26.77;10.30;;;6.50;99.90;;;;;;4199090;28;20352;-87
2022/12/22 08:08:46;;;;;;;28.50;9.25;;;6.50;99.90;;;;;;4216384;28;20047;-88
2022/12/22 08:10:47;;;;;;;31.35;9.77;;;6.60;99.90;;;;;;4215530;28;20234;-88
2022/12/22 08:12:47;;;;;;;30.70;8.88;;;6.50;99.90;;;;;;4200218;28;20050;-87
2022/12/22 08:14:48;;;;;;;24.25;8.02;;;6.50;99.90;;;;;;4217816;28;20385;-86
2022/12/22 08:16:49;;;;;;;30.70;9.02;;;6.50;99.90;;;;;;4217043;28;20421;-87
2022/12/22 08:18:49;;;;;;;29.27;8.30;;;6.50;99.90;;;;;;4217672;28;20046;-86
2022/12/22 08:20:51;;;;;;;24.38;8.27;;;6.50;99.90;;;;;;4199107;28;20124;-87
2022/12/22 08:22:52;;;;;;;26.30;8.25;;;6.40;99.90;;;;;;4216840;28;20051;-87
2022/12/22 08:24:53;;;;;;;27.95;8.57;;;6.40;99.90;;;;;;4216275;28;20082;-87
2022/12/22 08:26:57;;;;;;;27.75;8.05;;;6.40;99.90;;;;;;4216108;28;20519;-87
2022/12/22 08:29:08;;;;;;;30.25;7.85;;;6.40;99.90;;;;;;4215301;28;20093;-87
2022/12/22 08:31:10;;;;;;;26.42;8.80;;;6.40;99.90;;;;;;4215648;28;20048;-87
2022/12/22 08:33:12;;;;;;;27.63;8.40;;;6.40;99.90;;;;;;4217108;28;20525;-87
2022/12/22 08:35:13;;;;;;;25.67;9.85;;;6.40;99.90;;;;;;4199235;28;20549;-87
2022/12/22 08:37:17;;;;;;;28.10;10.23;;;6.50;99.90;;;;;;4216139;28;20044;-87
2022/12/22 08:39:22;;;;;;;32.17;8.95;;;6.50;99.90;;;;;;4215357;28;20059;-87
2022/12/22 08:43:43;;;;;;;26.23;8.30;;;6.50;99.90;;;;;;4214490;28;20052;-87
2022/12/22 08:45:43;;;;;;;25.70;9.90;;;6.60;99.90;;;;;;4213832;28;20037;-87
2022/12/22 08:47:45;;;;;;;31.23;10.05;;;6.50;99.90;;;;;;4214231;28;20075;-87
2022/12/22 08:49:47;;;;;;;26.48;9.25;;;6.60;99.90;;;;;;4215578;28;20047;-87
2022/12/22 08:51:48;;;;;;;34.78;10.27;;;6.90;99.90;;;;;;4215266;28;20055;-86
2022/12/22 08:53:49;;;;;;;48.05;13.10;;;6.50;99.90;;;;;;4214393;28;20044;-88
2022/12/22 08:55:54;;;;;;;46.92;12.55;;;6.50;99.90;;;;;;4214323;28;20055;-85
2022/12/22 08:57:55;;;;;;;35.53;12.60;;;6.50;99.90;;;;;;4215993;28;20144;-86
2022/12/22 08:59:58;;;;;;;45.80;14.45;;;6.50;99.90;;;;;;4217123;28;20093;-88
2022/12/22 09:02:03;;;;;;;65.55;16.50;;;7.10;99.90;;;;;;4198788;28;20139;-88
2022/12/22 09:04:06;;;;;;;48.78;15.15;;;6.50;99.90;;;;;;4217520;28;20085;-88
2022/12/22 09:06:06;;;;;;;45.58;15.43;;;6.50;99.90;;;;;;4214675;28;20100;-88
2022/12/22 09:08:07;;;;;;;49.17;15.10;;;6.50;99.90;;;;;;4215505;28;20072;-88
2022/12/22 09:10:09;;;;;;;44.72;13.55;;;6.50;99.90;;;;;;4198174;28;20566;-88
2022/12/22 09:12:10;;;;;;;42.58;13.68;;;6.50;99.90;;;;;;4215852;28;20109;-88
2022/12/22 09:14:11;;;;;;;37.42;12.65;;;6.40;99.90;;;;;;4216255;28;20044;-88
2022/12/22 09:16:13;;;;;;;44.63;13.95;;;6.50;99.90;;;;;;4216016;28;20087;-88
2022/12/22 09:18:14;;;;;;;36.78;10.77;;;6.50;99.90;;;;;;4216888;28;20119;-88
2022/12/22 09:20:15;;;;;;;42.97;11.43;;;6.50;99.90;;;;;;4214684;28;20117;-88
2022/12/22 09:22:16;;;;;;;28.35;9.38;;;6.50;99.90;;;;;;4198608;28;20459;-88
2022/12/22 09:24:18;;;;;;;27.90;8.68;;;6.90;99.90;;;;;;4217024;28;20040;-88
2022/12/22 09:26:23;;;;;;;27.40;10.10;;;6.40;99.90;;;;;;4198338;28;20048;-88
2022/12/22 09:28:24;;;;;;;21.48;8.15;;;6.90;99.90;;;;;;4215914;28;20048;-88
2022/12/22 09:30:26;;;;;;;26.10;8.02;;;6.50;99.90;;;;;;4199455;28;20071;-88
2022/12/22 09:32:27;;;;;;;27.08;7.45;;;7.30;99.90;;;;;;4218074;28;20039;-88
2022/12/22 09:34:29;;;;;;;24.80;7.50;;;5.30;99.90;;;;;;4219338;28;20507;-88
2022/12/22 09:36:30;;;;;;;19.85;7.22;;;6.60;99.90;;;;;;4218040;28;20490;-88
2022/12/22 09:38:35;;;;;;;18.90;7.38;;;6.60;99.90;;;;;;4216256;28;20048;-88
2022/12/22 09:40:37;;;;;;;19.75;7.72;;;6.70;99.90;;;;;;4200555;28;20110;-88
2022/12/22 09:42:39;;;;;;;21.20;6.70;;;6.10;99.90;;;;;;4217058;28;20076;-88
2022/12/22 09:44:43;;;;;;;12.88;5.20;;;7.20;99.90;;;;;;4219611;28;20044;-87
2022/12/22 09:46:46;;;;;;;15.63;5.70;;;6.60;99.90;;;;;;4217028;28;20083;-88
2022/12/22 09:48:47;;;;;;;15.23;5.32;;;7.30;99.90;;;;;;4201267;28;20052;-88
2022/12/22 09:50:49;;;;;;;15.32;6.43;;;6.60;99.90;;;;;;4217426;28;20127;-87
2022/12/22 09:53:00;;;;;;;15.23;5.22;;;6.60;99.90;;;;;;4200288;28;20048;-88
2022/12/22 09:55:25;;;;;;;17.92;5.68;;;6.70;99.90;;;;;;4216735;28;20163;-88
2022/12/22 09:57:30;;;;;;;17.42;4.22;;;6.80;99.90;;;;;;4195704;28;20568;-88
2022/12/22 09:59:32;;;;;;;15.20;4.22;;;5.50;99.90;;;;;;4215552;28;20077;-88
2022/12/22 10:01:50;;;;;;;18.77;4.18;;;7.50;99.90;;;;;;4217040;28;20052;-88
2022/12/22 10:04:30;;;;;;;16.40;4.80;;;6.80;99.90;;;;;;4217168;28;20048;-88
2022/12/22 10:06:56;;;;;;;12.18;5.25;;;6.60;99.90;;;;;;4216857;28;20056;-88
2022/12/22 10:09:14;;;;;;;17.02;6.18;;;7.00;99.90;;;;;;4217373;28;20052;-87
2022/12/22 10:11:17;;;;;;;13.15;5.55;;;7.40;99.90;;;;;;4216966;28;20047;-89
2022/12/22 10:13:19;;;;;;;11.50;5.40;;;7.40;99.90;;;;;;4215515;28;20123;-89
2022/12/22 10:15:19;;;;;;;15.55;5.28;;;7.50;99.90;;;;;;4215051;28;20146;-88
2022/12/22 10:17:24;;;;;;;13.43;5.07;;;8.10;99.90;;;;;;4215576;28;20539;-89
2022/12/22 10:19:25;;;;;;;11.45;4.68;;;7.80;99.90;;;;;;4214324;28;20052;-88
2022/12/22 10:21:27;;;;;;;9.32;4.65;;;7.90;99.90;;;;;;4213817;28;20084;-88
2022/12/22 10:23:29;;;;;;;15.98;5.32;;;8.00;99.90;;;;;;4216461;28;20040;-89
2022/12/22 10:25:32;;;;;;;10.73;4.38;;;8.20;99.90;;;;;;4197480;28;20095;-89
2022/12/22 10:27:36;;;;;;;9.43;4.85;;;8.40;99.90;;;;;;4214483;28;20097;-89
2022/12/22 10:29:38;;;;;;;8.90;3.92;;;8.60;99.90;;;;;;4197916;28;20091;-89
2022/12/22 10:31:58;;;;;;;8.20;3.22;;;8.70;99.90;;;;;;4215952;28;20496;-89
2022/12/22 10:34:15;;;;;;;14.95;4.35;;;9.30;99.90;;;;;;4214843;28;20052;-89
2022/12/22 10:36:29;;;;;;;7.05;3.83;;;8.60;99.90;;;;;;4198706;28;20045;-89
2022/12/22 10:38:38;;;;;;;15.80;4.82;;;8.70;99.90;;;;;;4214401;28;20523;-90
2022/12/22 10:40:46;;;;;;;;;;;8.90;99.90;;;;;;4222064;28;20068;-89
2022/12/22 10:42:52;;;;;;;12.93;4.50;;;9.00;99.90;;;;;;4219694;28;19920;-89
2022/12/22 10:44:53;;;;;;;8.25;3.42;;;8.90;99.90;;;;;;4200259;28;20052;-89
2022/12/22 10:47:10;;;;;;;11.75;4.15;;;9.00;99.90;;;;;;4219672;28;20520;-88
2022/12/22 10:49:19;;;;;;;10.88;4.45;;;9.10;99.90;;;;;;4218715;28;20048;-89
2022/12/22 10:51:24;;;;;;;13.52;4.38;;;9.20;99.90;;;;;;4218170;28;20050;-89
2022/12/22 10:53:56;;;;;;;15.48;3.63;;;9.40;99.90;;;;;;4215535;28;20063;-89
2022/12/22 10:56:05;;;;;;;10.70;3.85;;;9.50;99.90;;;;;;4191670;28;20135;-90
2022/12/22 10:58:09;;;;;;;7.03;3.50;;;9.60;99.90;;;;;;4214096;28;20044;-89
2022/12/22 11:00:30;;;;;;;8.93;3.90;;;9.70;99.90;;;;;;4213025;28;20060;-89
2022/12/22 11:02:36;;;;;;;10.55;3.65;;;9.60;99.90;;;;;;4212594;28;20117;-89
2022/12/22 11:04:36;;;;;;;12.07;4.07;;;9.50;99.90;;;;;;4213365;28;20048;-89
2022/12/22 11:06:42;;;;;;;9.60;4.15;;;9.50;99.90;;;;;;4214137;28;20092;-89
2022/12/22 11:08:43;;;;;;;10.50;4.03;;;9.50;99.90;;;;;;4213849;28;20082;-89
2022/12/22 11:11:04;;;;;;;10.55;3.38;;;9.50;99.90;;;;;;4196755;28;20501;-90
2022/12/22 11:13:22;;;;;;;11.75;4.60;;;9.50;99.90;;;;;;4212781;28;20093;-90
2022/12/22 11:15:38;;;;;;;17.30;4.53;;;9.50;99.90;;;;;;4214926;28;20060;-90
2022/12/22 11:17:52;;;;;;;10.20;3.67;;;9.40;99.90;;;;;;4213043;28;20047;-90
2022/12/22 11:20:18;;;;;;;10.88;3.40;;;9.40;99.90;;;;;;4196779;28;20083;-87
2022/12/22 11:22:40;;;;;;;11.45;3.22;;;9.40;99.90;;;;;;4214985;28;20042;-89
2022/12/22 11:24:54;;;;;;;8.82;2.78;;;9.60;99.90;;;;;;4208258;28;20413;-88
2022/12/22 11:27:12;;;;;;;12.00;3.28;;;9.60;99.90;;;;;;4197495;28;20036;-89
2022/12/22 11:29:37;;;;;;;10.00;2.80;;;9.70;99.90;;;;;;4197346;28;20093;-88
2022/12/22 11:32:26;;;;;;;5.78;2.22;;;9.80;99.90;;;;;;4198464;28;20052;-88
2022/12/22 11:34:57;;;;;;;5.85;2.17;;;10.00;99.90;;;;;;4165224;28;20060;-87
2022/12/22 11:37:13;;;;;;;7.57;2.75;;;10.10;99.90;;;;;;4200831;28;20092;-87
2022/12/22 11:39:33;;;;;;;11.05;3.00;;;10.30;99.90;;;;;;4202660;28;20049;-87
2022/12/22 11:41:54;;;;;;;14.63;3.70;;;10.30;99.90;;;;;;4202747;28;20516;-89
2022/12/22 11:44:02;;;;;;;7.78;2.95;;;10.20;99.90;;;;;;4198916;28;20129;-87
2022/12/22 11:46:31;;;;;;;9.27;3.25;;;10.20;99.90;;;;;;4211195;28;20044;-88
2022/12/22 11:48:43;;;;;;;14.18;2.95;;;10.20;99.90;;;;;;4201083;28;20116;-87
2022/12/22 11:50:49;;;;;;;11.65;3.20;;;10.30;99.90;;;;;;4200436;28;20098;-88
2022/12/22 11:53:25;;;;;;;10.68;2.92;;;11.30;99.90;;;;;;4205360;28;20063;-88
2022/12/22 11:55:33;;;;;;;6.20;2.70;;;10.50;99.90;;;;;;4183535;28;20052;-88
2022/12/22 11:57:50;;;;;;;13.02;3.00;;;10.50;99.90;;;;;;4200786;28;20053;-87
2022/12/22 11:59:50;;;;;;;8.00;2.38;;;10.60;99.90;;;;;;4199954;28;20516;-87
2022/12/22 12:02:14;;;;;;;8.57;2.38;;;10.70;99.90;;;;;;4200232;28;20056;-89
2022/12/22 12:04:14;;;;;;;6.18;2.22;;;10.80;99.90;;;;;;4184549;28;20056;-89
2022/12/22 12:06:32;;;;;;;10.63;2.75;;;10.90;99.90;;;;;;4183935;28;20148;-89
2022/12/22 12:09:10;;;;;;;8.43;2.40;;;10.90;99.90;;;;;;4199723;28;20052;-88
2022/12/22 12:11:33;;;;;;;14.65;2.90;;;11.00;99.90;;;;;;4171345;28;20056;-87
2022/12/22 12:13:38;;;;;;;10.35;3.10;;;11.10;99.90;;;;;;4199528;28;20045;-87
2022/12/22 12:15:51;;;;;;;5.60;2.70;;;11.10;99.90;;;;;;4200056;28;20071;-88
2022/12/22 12:18:22;;;;;;;6.05;1.98;;;11.10;99.90;;;;;;4200846;28;20106;-87
2022/12/22 12:20:49;;;;;;;7.88;2.65;;;11.20;99.90;;;;;;4198868;28;20556;-86
2022/12/22 12:23:14;;;;;;;9.20;2.20;;;11.20;99.90;;;;;;4200380;28;20040;-87
2022/12/22 12:25:32;;;;;;;8.80;2.58;;;11.20;99.90;;;;;;4200016;28;20091;-89
2022/12/22 12:27:50;;;;;;;9.88;2.33;;;11.30;99.90;;;;;;4184011;28;20041;-88
2022/12/22 12:30:01;;;;;;;9.93;2.60;;;11.40;99.90;;;;;;4200334;28;20095;-88
2022/12/22 12:32:08;;;;;;;9.27;2.63;;;11.50;99.90;;;;;;4200763;28;20051;-88
2022/12/22 12:34:13;;;;;;;5.93;1.90;;;11.50;99.90;;;;;;4201172;28;20056;-90
2022/12/22 12:37:04;;;;;;;12.05;2.42;;;11.70;99.90;;;;;;4200897;28;20048;-89
2022/12/22 12:39:20;;;;;;;14.02;3.47;;;11.60;99.90;;;;;;4199736;28;20051;-88
2022/12/22 12:41:21;;;;;;;7.65;1.92;;;11.60;99.90;;;;;;4200620;28;20068;-88
2022/12/22 12:43:22;;;;;;;10.15;2.78;;;11.40;99.90;;;;;;4183396;28;20053;-88
2022/12/22 12:45:36;;;;;;;11.80;2.10;;;11.40;99.90;;;;;;4180956;28;20041;-85
2022/12/22 12:47:37;;;;;;;8.30;1.85;;;11.20;99.90;;;;;;4198088;28;20083;-88
2022/12/22 12:49:37;;;;;;;12.18;2.40;;;11.10;99.90;;;;;;4183136;28;20475;-88
2022/12/22 12:51:47;;;;;;;6.25;2.38;;;11.00;99.90;;;;;;4181461;28;20056;-88
2022/12/22 12:54:27;;;;;;;8.63;2.58;;;10.90;99.90;;;;;;4199146;28;20047;-88
2022/12/22 12:56:54;;;;;;;11.40;2.10;;;10.80;99.90;;;;;;4180408;28;20096;-88
2022/12/22 12:58:56;;;;;;;10.35;2.35;;;10.50;99.90;;;;;;4181508;28;20524;-88
2022/12/22 13:00:58;;;;;;;9.98;1.98;;;10.40;99.90;;;;;;4197948;28;20049;-88
2022/12/22 13:03:06;;;;;;;9.52;2.20;;;10.30;99.90;;;;;;4197611;28;20072;-88
2022/12/22 13:05:10;;;;;;;10.68;2.35;;;10.20;99.90;;;;;;4199105;28;20056;-89
2022/12/22 13:07:10;;;;;;;10.10;1.88;;;10.10;99.90;;;;;;4197548;28;20110;-88
2022/12/22 13:09:23;;;;;;;8.70;2.05;;;10.10;99.90;;;;;;4198945;28;20115;-88
2022/12/22 13:11:50;;;;;;;6.18;1.70;;;10.10;99.90;;;;;;4180315;28;20056;-88
2022/12/22 13:13:51;;;;;;;9.20;2.35;;;10.10;99.90;;;;;;4179927;28;20110;-88
2022/12/22 13:16:01;;;;;;;7.07;1.77;;;10.20;99.90;;;;;;4180486;28;20509;-88
2022/12/22 13:18:07;;;;;;;10.13;1.88;;;10.30;99.90;;;;;;4181310;28;20049;-88
2022/12/22 13:20:19;;;;;;;12.13;2.30;;;10.30;99.90;;;;;;4198347;28;20113;-88
2022/12/22 13:22:20;;;;;;;8.15;2.00;;;10.30;99.90;;;;;;4197096;28;20044;-89
2022/12/22 13:24:28;;;;;;;9.05;2.10;;;10.30;99.90;;;;;;4197827;28;20612;-88
2022/12/22 13:26:35;;;;;;;7.07;1.90;;;10.20;99.90;;;;;;4181183;28;20049;-89
2022/12/22 13:28:39;;;;;;;9.32;1.92;;;10.10;99.90;;;;;;4199384;28;20358;-88
2022/12/22 13:30:44;;;;;;;7.18;1.83;;;9.90;99.90;;;;;;4198435;28;20048;-87
2022/12/22 13:32:48;;;;;;;7.88;1.75;;;9.90;99.90;;;;;;4180791;28;20044;-88
2022/12/22 13:35:06;;;;;;;12.43;2.65;;;9.90;99.90;;;;;;4199346;28;20037;-88
2022/12/22 13:37:24;;;;;;;7.05;1.80;;;9.90;99.90;;;;;;4198962;28;20048;-87
2022/12/22 13:39:31;;;;;;;8.07;1.92;;;9.80;99.90;;;;;;4197522;28;20046;-88
2022/12/22 13:41:33;;;;;;;10.00;1.92;;;9.80;99.90;;;;;;4198052;28;20059;-89
2022/12/22 13:43:34;;;;;;;14.07;6.38;;;9.80;99.90;;;;;;4197454;28;20049;-87
2022/12/22 13:45:55;;;;;;;11.65;3.10;;;9.70;99.90;;;;;;4197504;28;20053;-87
2022/12/22 13:47:57;;;;;;;8.63;1.70;;;9.50;99.90;;;;;;4197766;28;20079;-87
2022/12/22 13:49:58;;;;;;;7.40;2.03;;;9.70;99.90;;;;;;4198548;28;20037;-87
2022/12/22 13:52:00;;;;;;;14.68;2.47;;;9.70;99.90;;;;;;4197183;28;20147;-87
2022/12/22 13:54:25;;;;;;;10.82;1.70;;;9.60;99.90;;;;;;4197767;28;20132;-87
2022/12/22 13:56:35;;;;;;;7.00;2.47;;;9.60;99.90;;;;;;4197095;28;20048;-88
2022/12/22 13:58:40;;;;;;;8.73;2.35;;;9.50;99.90;;;;;;4197190;28;20080;-88
2022/12/22 14:00:40;;;;;;;7.07;1.92;;;9.50;99.90;;;;;;4197855;28;20045;-88
2022/12/22 14:02:43;;;;;;;8.15;2.58;;;9.50;99.90;;;;;;4197119;28;20056;-88
2022/12/22 14:05:03;;;;;;;4.60;1.90;;;9.40;99.90;;;;;;4197484;28;20048;-88
2022/12/22 14:07:22;;;;;;;8.23;2.13;;;9.40;99.90;;;;;;4196886;28;20045;-88
2022/12/22 14:09:26;;;;;;;6.95;2.28;;;9.50;99.90;;;;;;4197374;28;20094;-88
2022/12/22 14:11:30;;;;;;;8.52;2.63;;;9.50;99.90;;;;;;4180971;28;20095;-88
2022/12/22 14:13:32;;;;;;;10.98;2.15;;;9.40;99.90;;;;;;4181376;28;20037;-88
2022/12/22 14:15:33;;;;;;;10.05;2.30;;;9.50;99.90;;;;;;4198112;28;20088;-88
2022/12/22 14:17:38;;;;;;;7.55;1.85;;;9.50;99.90;;;;;;4197440;28;20157;-88
2022/12/22 14:19:40;;;;;;;16.45;3.35;;;9.40;99.90;;;;;;4197032;28;20059;-88
2022/12/22 14:21:45;;;;;;;9.65;2.67;;;9.40;99.90;;;;;;4180509;28;20048;-88
2022/12/22 14:23:46;;;;;;;5.60;2.05;;;9.40;99.90;;;;;;4198587;28;20051;-88
2022/12/22 14:25:49;;;;;;;12.45;2.88;;;9.50;99.90;;;;;;4197516;28;20040;-88
2022/12/22 14:27:53;;;;;;;9.82;2.25;;;9.40;99.90;;;;;;4198060;28;20082;-88
2022/12/22 14:29:56;;;;;;;8.45;2.60;;;9.50;99.90;;;;;;4197207;28;20045;-88
2022/12/22 14:32:00;;;;;;;8.45;2.58;;;9.50;99.90;;;;;;4197400;28;20044;-88
2022/12/22 14:34:06;;;;;;;17.23;4.50;;;9.50;99.90;;;;;;4198682;28;20470;-88
2022/12/22 14:36:25;;;;;;;10.40;2.58;;;9.40;99.90;;;;;;4198347;28;20044;-88